createdAt,value
2023-01-29T00:00:00.098Z, 79.1
2023-01-29T00:02:00.147Z, 79
2023-01-29T00:04:00.314Z, 78.9
2023-01-29T00:06:00.088Z, 79
2023-01-29T00:08:00.094Z, 79.2
2023-01-29T00:10:00.088Z, 78.9
2023-01-29T00:12:00.105Z, 79
2023-01-29T00:14:00.625Z, 78.8
2023-01-29T00:16:00.102Z, 78.6
2023-01-29T00:18:00.126Z, 78.6
2023-01-29T00:20:00.082Z, 78.7
2023-01-29T00:22:00.093Z, 78.8
2023-01-29T00:24:00.185Z, 78.8
2023-01-29T00:26:00.096Z, 78.9
2023-01-29T00:28:00.112Z, 79.6
2023-01-29T00:30:00.116Z, 79.8
2023-01-29T00:32:00.328Z, 79.6
2023-01-29T00:34:00.124Z, 79.5
2023-01-29T00:36:00.108Z, 79.2
2023-01-29T00:38:00.136Z, 79.3
2023-01-29T00:40:00.104Z, 79.7
2023-01-29T00:42:00.090Z, 80.4
2023-01-29T00:44:00.113Z, 79.3
2023-01-29T00:46:00.116Z, 78.8
2023-01-29T00:48:00.136Z, 78.4
2023-01-29T00:50:00.136Z, 78.6
2023-01-29T00:52:00.104Z, 78.3
2023-01-29T00:54:00.099Z, 78.3
2023-01-29T00:56:00.117Z, 78.2
2023-01-29T00:58:00.124Z, 78.5
2023-01-29T01:00:00.209Z, 78.1
2023-01-29T01:02:00.195Z, 78.5
2023-01-29T01:04:00.261Z, 79.1
2023-01-29T01:06:00.099Z, 79.2
2023-01-29T01:08:00.154Z, 79.6
2023-01-29T01:10:00.128Z, 80.3
2023-01-29T01:12:00.109Z, 81.3
2023-01-29T01:14:00.103Z, 81.2
2023-01-29T01:16:00.184Z, 81
2023-01-29T01:18:00.127Z, 81
2023-01-29T01:20:00.038Z, 81.5
2023-01-29T01:22:00.022Z, 82.2
2023-01-29T01:24:00.120Z, 82.5
2023-01-29T01:26:00.039Z, 83
2023-01-29T01:30:00.146Z, 84
2023-01-29T01:32:00.211Z, 84.1
2023-01-29T01:34:00.139Z, 84.4
2023-01-29T01:36:00.090Z, 83.9
2023-01-29T01:38:00.084Z, 83.6
2023-01-29T01:40:00.056Z, 83.8
2023-01-29T01:42:00.112Z, 84
2023-01-29T01:44:00.127Z, 84.2
2023-01-29T01:46:00.200Z, 84.5
2023-01-29T01:48:00.097Z, 84.9
2023-01-29T01:50:00.122Z, 85.2
2023-01-29T01:52:00.093Z, 84.9
2023-01-29T01:54:00.127Z, 84.5
2023-01-29T01:56:00.130Z, 84
2023-01-29T01:58:00.110Z, 83.7
2023-01-29T02:00:00.101Z, 83.8
2023-01-29T02:02:00.197Z, 83.5
2023-01-29T02:04:00.099Z, 83.9
2023-01-29T02:06:00.088Z, 83.7
2023-01-29T02:08:00.105Z, 84.1
2023-01-29T02:10:00.105Z, 84.6
2023-01-29T02:12:00.104Z, 84.6
2023-01-29T02:14:00.093Z, 84.7
2023-01-29T02:16:00.106Z, 84.1
2023-01-29T02:18:00.110Z, 84
2023-01-29T02:20:00.130Z, 84
2023-01-29T02:22:00.083Z, 84
2023-01-29T02:24:00.307Z, 83.6
2023-01-29T02:26:00.122Z, 83.3
2023-01-29T02:28:00.086Z, 83.3
2023-01-29T02:30:00.133Z, 83.3
2023-01-29T02:32:00.165Z, 83.1
2023-01-29T02:34:00.106Z, 82.7
2023-01-29T02:36:00.098Z, 82.6
2023-01-29T02:38:00.105Z, 82.5
2023-01-29T02:40:00.088Z, 82.6
2023-01-29T02:42:00.093Z, 83.2
2023-01-29T02:44:00.324Z, 84
2023-01-29T02:46:00.145Z, 84.6
2023-01-29T02:48:00.112Z, 85.3
2023-01-29T02:50:00.106Z, 85.4
2023-01-29T02:52:00.492Z, 85.5
2023-01-29T02:54:00.445Z, 85.9
2023-01-29T02:56:00.089Z, 86
2023-01-29T02:58:00.105Z, 86.4
2023-01-29T03:00:00.119Z, 86.9
2023-01-29T03:02:00.221Z, 87
2023-01-29T03:04:00.101Z, 87
2023-01-29T03:06:00.109Z, 86.8
2023-01-29T03:08:00.098Z, 86.5
2023-01-29T03:10:00.105Z, 86.8
2023-01-29T03:12:00.118Z, 86.9
2023-01-29T03:14:00.093Z, 87.1
2023-01-29T03:16:00.103Z, 87.4
2023-01-29T03:18:00.116Z, 87.4
2023-01-29T03:20:00.157Z, 87.1
2023-01-29T03:22:00.130Z, 86.8
2023-01-29T03:24:00.117Z, 86.4
2023-01-29T03:26:00.119Z, 86.1
2023-01-29T03:28:00.097Z, 85.7
2023-01-29T03:30:00.088Z, 85.4
2023-01-29T03:32:00.200Z, 85.2
2023-01-29T03:34:00.137Z, 85.3
2023-01-29T03:36:00.109Z, 85.3
2023-01-29T03:38:00.099Z, 86.3
2023-01-29T03:40:00.092Z, 85.7
2023-01-29T03:42:00.103Z, 85.1
2023-01-29T03:44:00.110Z, 84.6
2023-01-29T03:46:00.192Z, 84.5
2023-01-29T03:48:00.116Z, 84.4
2023-01-29T03:50:00.106Z, 84.3
2023-01-29T03:52:00.118Z, 84.4
2023-01-29T03:54:00.098Z, 84.3
2023-01-29T03:56:00.097Z, 84.4
2023-01-29T03:58:00.082Z, 84.8
2023-01-29T04:00:00.101Z, 85.3
2023-01-29T04:02:00.118Z, 86
2023-01-29T04:04:00.199Z, 86.7
2023-01-29T04:06:00.109Z, 86.5
2023-01-29T04:08:00.100Z, 86.3
2023-01-29T04:10:00.116Z, 85.9
2023-01-29T04:12:00.101Z, 85.7
2023-01-29T04:14:00.121Z, 85.7
2023-01-29T04:16:00.099Z, 85.8
2023-01-29T04:18:00.091Z, 86.1
2023-01-29T04:20:00.129Z, 86.7
2023-01-29T04:22:00.092Z, 87.1
2023-01-29T04:24:00.164Z, 86.6
2023-01-29T04:26:00.114Z, 86.1
2023-01-29T04:28:00.117Z, 85.7
2023-01-29T04:30:00.107Z, 85.3
2023-01-29T04:32:00.195Z, 84.4
2023-01-29T04:34:00.098Z, 84.1
2023-01-29T04:36:00.116Z, 84.3
2023-01-29T04:38:00.108Z, 84.4
2023-01-29T04:40:00.137Z, 84.5
2023-01-29T04:42:00.117Z, 84.5
2023-01-29T04:44:00.131Z, 84.5
2023-01-29T04:46:00.096Z, 85.1
2023-01-29T04:48:00.098Z, 85.4
2023-01-29T04:50:00.108Z, 85.6
2023-01-29T04:52:00.073Z, 85.9
2023-01-29T04:54:00.088Z, 86.5
2023-01-29T04:56:00.131Z, 87
2023-01-29T04:58:00.107Z, 87.1
2023-01-29T05:00:00.114Z, 87
2023-01-29T05:02:00.256Z, 87.4
2023-01-29T05:04:00.097Z, 88.3
2023-01-29T05:06:00.238Z, 88.7
2023-01-29T05:08:00.102Z, 89.4
2023-01-29T05:10:00.099Z, 89.8
2023-01-29T05:12:00.097Z, 90.4
2023-01-29T05:14:00.104Z, 90.7
2023-01-29T05:16:00.129Z, 90.9
2023-01-29T05:18:00.104Z, 90.8
2023-01-29T05:20:00.099Z, 90.3
2023-01-29T05:22:00.093Z, 90.4
2023-01-29T05:24:00.148Z, 90.6
2023-01-29T05:26:00.128Z, 90.2
2023-01-29T05:28:00.107Z, 90.4
2023-01-29T05:30:00.102Z, 90.7
2023-01-29T05:32:00.165Z, 90.6
2023-01-29T05:34:00.097Z, 90.6
2023-01-29T05:36:00.135Z, 90.7
2023-01-29T05:38:00.089Z, 90.8
2023-01-29T05:40:00.129Z, 90.6
2023-01-29T05:42:00.119Z, 90.7
2023-01-29T05:44:00.107Z, 90.7
2023-01-29T05:46:00.115Z, 90.5
2023-01-29T05:48:00.123Z, 90.6
2023-01-29T05:50:00.122Z, 90.9
2023-01-29T05:52:00.093Z, 91
2023-01-29T05:54:00.118Z, 91.4
2023-01-29T05:56:00.090Z, 90.8
2023-01-29T05:58:00.095Z, 90.3
2023-01-29T06:00:00.109Z, 90.1
2023-01-29T06:02:00.193Z, 90.2
2023-01-29T06:04:00.112Z, 90.2
2023-01-29T06:06:00.124Z, 90
2023-01-29T06:08:00.098Z, 90.3
2023-01-29T06:10:00.101Z, 90.7
2023-01-29T06:12:00.098Z, 91.1
2023-01-29T06:14:00.091Z, 91.2
2023-01-29T06:16:00.406Z, 90.7
2023-01-29T06:18:00.225Z, 90.9
2023-01-29T06:20:00.118Z, 90.9
2023-01-29T06:22:00.106Z, 90.9
2023-01-29T06:24:00.137Z, 90.7
2023-01-29T06:26:00.102Z, 90.8
2023-01-29T06:28:00.087Z, 90.7
2023-01-29T06:30:00.108Z, 90.5
2023-01-29T06:32:00.313Z, 90.3
2023-01-29T06:34:00.119Z, 90.2
2023-01-29T06:36:00.115Z, 90.2
2023-01-29T06:38:00.112Z, 90.4
2023-01-29T06:40:00.106Z, 90.7
2023-01-29T06:42:00.072Z, 90.8
2023-01-29T06:44:00.095Z, 90.8
2023-01-29T06:46:00.133Z, 90.4
2023-01-29T06:48:01.544Z, 90.3
2023-01-29T06:50:00.100Z, 89.9
2023-01-29T06:52:00.095Z, 89.6
2023-01-29T06:54:00.135Z, 89
2023-01-29T06:56:00.108Z, 88.6
2023-01-29T06:58:00.107Z, 88.2
2023-01-29T07:00:00.150Z, 87.8
2023-01-29T07:02:00.212Z, 87.3
2023-01-29T07:04:00.104Z, 87.2
2023-01-29T07:06:00.130Z, 86.9
2023-01-29T07:08:00.126Z, 86.5
2023-01-29T07:10:00.118Z, 86
2023-01-29T07:12:00.118Z, 85.8
2023-01-29T07:14:00.109Z, 85.7
2023-01-29T07:16:00.212Z, 86.5
2023-01-29T07:18:00.099Z, 87.1
2023-01-29T07:20:00.109Z, 87.4
2023-01-29T07:22:00.089Z, 87.4
2023-01-29T07:24:00.180Z, 87.3
2023-01-29T07:26:00.103Z, 87.5
2023-01-29T07:28:01.067Z, 87.2
2023-01-29T07:30:00.144Z, 87.4
2023-01-29T07:32:00.180Z, 87.2
2023-01-29T07:34:00.110Z, 87.5
2023-01-29T07:36:00.130Z, 87.7
2023-01-29T07:38:00.113Z, 87.8
2023-01-29T07:40:00.088Z, 87.7
2023-01-29T07:42:00.088Z, 86.2
2023-01-29T07:44:00.108Z, 85.6
2023-01-29T07:46:00.166Z, 85.3
2023-01-29T07:48:00.094Z, 85.6
2023-01-29T07:50:00.113Z, 86.1
2023-01-29T07:52:00.102Z, 86.7
2023-01-29T07:54:00.141Z, 87.2
2023-01-29T07:56:00.169Z, 87.7
2023-01-29T07:58:00.105Z, 87.4
2023-01-29T08:00:00.112Z, 87.7
2023-01-29T08:02:00.174Z, 88
2023-01-29T08:04:00.128Z, 87.3
2023-01-29T08:06:00.127Z, 86.2
2023-01-29T08:08:06.438Z, 85.4
2023-01-29T08:10:00.111Z, 85
2023-01-29T08:12:00.115Z, 85
2023-01-29T08:14:00.115Z, 85.7
2023-01-29T08:16:00.104Z, 85.7
2023-01-29T08:18:00.092Z, 85.2
2023-01-29T08:20:00.129Z, 85.1
2023-01-29T08:22:00.100Z, 84.5
2023-01-29T08:26:00.122Z, 85.2
2023-01-29T08:28:00.089Z, 85.6
2023-01-29T08:30:00.100Z, 85.6
2023-01-29T08:32:00.197Z, 84.8
2023-01-29T08:34:00.112Z, 83.6
2023-01-29T08:36:00.101Z, 83.8
2023-01-29T08:38:00.098Z, 83.6
2023-01-29T08:40:00.305Z, 83
2023-01-29T08:42:00.094Z, 82.7
2023-01-29T08:44:00.106Z, 82.4
2023-01-29T08:46:00.128Z, 82.8
2023-01-29T08:48:00.114Z, 83.4
2023-01-29T08:50:00.111Z, 83.3
2023-01-29T08:52:02.399Z, 83.6
2023-01-29T08:54:00.130Z, 83.9
2023-01-29T08:56:00.115Z, 83.6
2023-01-29T08:58:00.129Z, 83.4
2023-01-29T09:00:00.189Z, 83.3
2023-01-29T09:02:00.118Z, 82.5
2023-01-29T09:04:00.100Z, 82.2
2023-01-29T09:06:00.359Z, 82.4
2023-01-29T09:08:00.117Z, 82.2
2023-01-29T09:10:00.107Z, 82.9
2023-01-29T09:12:00.122Z, 82.8
2023-01-29T09:14:00.093Z, 83.1
2023-01-29T09:16:00.096Z, 82.6
2023-01-29T09:18:00.099Z, 82.3
2023-01-29T09:20:00.112Z, 82
2023-01-29T09:22:00.103Z, 81.8
2023-01-29T09:24:00.107Z, 82.1
2023-01-29T09:26:00.092Z, 82.3
2023-01-29T09:28:00.102Z, 82.5
2023-01-29T09:30:00.124Z, 81.9
2023-01-29T09:32:00.163Z, 81.3
2023-01-29T09:34:00.105Z, 80.5
2023-01-29T09:36:00.100Z, 80.1
2023-01-29T09:38:00.081Z, 79.9
2023-01-29T09:40:00.117Z, 79.2
2023-01-29T09:42:00.130Z, 78.5
2023-01-29T09:44:00.099Z, 78.5
2023-01-29T09:46:00.181Z, 78.1
2023-01-29T09:48:00.094Z, 77.3
2023-01-29T09:50:00.118Z, 76.8
2023-01-29T09:52:00.107Z, 76.7
2023-01-29T09:54:00.106Z, 77.8
2023-01-29T09:56:00.101Z, 78
2023-01-29T09:58:00.129Z, 78.2
2023-01-29T10:00:00.097Z, 78.1
2023-01-29T10:02:00.374Z, 77.4
2023-01-29T10:04:00.183Z, 77.8
2023-01-29T10:06:00.209Z, 78.6
2023-01-29T10:08:00.253Z, 78.7
2023-01-29T10:10:00.234Z, 79
2023-01-29T10:12:00.064Z, 78.7
2023-01-29T10:14:00.033Z, 78.2
2023-01-29T10:16:00.039Z, 78.4
2023-01-29T10:18:00.023Z, 78.7
2023-01-29T10:20:00.047Z, 78.1
2023-01-29T10:22:00.130Z, 78.3
2023-01-29T10:24:00.091Z, 78.2
2023-01-29T10:26:00.106Z, 77.7
2023-01-29T10:28:00.108Z, 76.6
2023-01-29T10:30:00.097Z, 75.7
2023-01-29T10:32:00.218Z, 75.7
2023-01-29T10:34:02.427Z, 75.9
2023-01-29T10:36:00.099Z, 75
2023-01-29T10:38:00.099Z, 74.7
2023-01-29T10:40:00.106Z, 74.4
2023-01-29T10:42:00.100Z, 75.2
2023-01-29T10:44:00.090Z, 76.2
2023-01-29T10:46:00.095Z, 77.6
2023-01-29T10:48:00.102Z, 77.9
2023-01-29T10:50:00.375Z, 78.7
2023-01-29T10:52:00.100Z, 78.4
2023-01-29T10:54:00.099Z, 78.5
2023-01-29T10:56:01.189Z, 78.6
2023-01-29T10:58:01.343Z, 78.6
2023-01-29T11:00:00.106Z, 78.4
2023-01-29T11:02:00.263Z, 78.3
2023-01-29T11:04:00.089Z, 78.5
2023-01-29T11:06:00.121Z, 77.6
2023-01-29T11:08:00.091Z, 78.1
2023-01-29T11:10:00.143Z, 76.4
2023-01-29T11:12:00.104Z, 76.2
2023-01-29T11:14:00.115Z, 75.5
2023-01-29T11:16:00.111Z, 75.6
2023-01-29T11:18:00.109Z, 75
2023-01-29T11:20:00.132Z, 75.4
2023-01-29T11:22:00.092Z, 76.8
2023-01-29T11:24:00.093Z, 76.8
2023-01-29T11:26:00.102Z, 77.7
2023-01-29T11:28:00.102Z, 78.7
2023-01-29T11:30:00.114Z, 78.5
2023-01-29T11:32:00.183Z, 77.8
2023-01-29T11:34:00.100Z, 77.7
2023-01-29T11:36:00.147Z, 77.6
2023-01-29T11:38:00.102Z, 78
2023-01-29T11:40:00.092Z, 78.8
2023-01-29T11:42:00.406Z, 78.1
2023-01-29T11:44:00.135Z, 77.9
2023-01-29T11:46:00.108Z, 77.9
2023-01-29T11:48:00.114Z, 77.4
2023-01-29T11:50:00.107Z, 77.5
2023-01-29T11:52:00.120Z, 77.4
2023-01-29T11:54:00.100Z, 77
2023-01-29T11:56:00.103Z, 76
2023-01-29T11:58:00.099Z, 76
2023-01-29T12:00:00.107Z, 76.4
2023-01-29T12:02:00.103Z, 76.7
2023-01-29T12:04:00.256Z, 76.7
2023-01-29T12:06:00.209Z, 75.8
2023-01-29T12:08:00.116Z, 76.8
2023-01-29T12:10:00.152Z, 77.7
2023-01-29T12:12:00.109Z, 77.6
2023-01-29T12:14:00.107Z, 77.7
2023-01-29T12:16:00.163Z, 77.6
2023-01-29T12:18:00.105Z, 77.6
2023-01-29T12:20:00.123Z, 77.8
2023-01-29T12:22:02.170Z, 78.3
2023-01-29T12:24:00.099Z, 78.4
2023-01-29T12:26:00.096Z, 78.2
2023-01-29T12:28:00.128Z, 77.2
2023-01-29T12:30:00.108Z, 77.2
2023-01-29T12:32:00.084Z, 77
2023-01-29T12:34:00.119Z, 77.2
2023-01-29T12:36:00.099Z, 76.4
2023-01-29T12:38:00.118Z, 77.3
2023-01-29T12:40:00.121Z, 76.2
2023-01-29T12:42:00.084Z, 75.7
2023-01-29T12:44:00.094Z, 75.7
2023-01-29T12:46:00.108Z, 75.5
2023-01-29T12:48:00.094Z, 75.2
2023-01-29T12:50:00.101Z, 75.4
2023-01-29T12:52:00.103Z, 75.8
2023-01-29T12:54:00.109Z, 76
2023-01-29T12:56:00.097Z, 75.9
2023-01-29T12:58:00.095Z, 75.3
2023-01-29T13:00:00.099Z, 75.7
2023-01-29T13:02:00.099Z, 75.2
2023-01-29T13:04:00.104Z, 75.2
2023-01-29T13:06:00.094Z, 75.7
2023-01-29T13:08:00.081Z, 76.2
2023-01-29T13:10:00.108Z, 75.2
2023-01-29T13:12:00.099Z, 75.8
2023-01-29T13:14:00.100Z, 75.8
2023-01-29T13:16:00.259Z, 75.9
2023-01-29T13:18:00.103Z, 75.2
2023-01-29T13:20:00.109Z, 74.9
2023-01-29T13:22:00.104Z, 75.2
2023-01-29T13:24:00.107Z, 74.8
2023-01-29T13:26:00.090Z, 75.1
2023-01-29T13:28:00.089Z, 75.6
2023-01-29T13:30:00.118Z, 75.3
2023-01-29T13:32:00.134Z, 75
2023-01-29T13:34:00.121Z, 74.6
2023-01-29T13:36:00.122Z, 74.7
2023-01-29T13:38:00.096Z, 74.5
2023-01-29T13:40:00.107Z, 74.4
2023-01-29T13:42:00.114Z, 74.5
2023-01-29T13:44:00.113Z, 74.6
2023-01-29T13:46:00.153Z, 74.7
2023-01-29T13:48:00.108Z, 73.7
2023-01-29T13:50:00.107Z, 74.1
2023-01-29T13:52:00.120Z, 72.7
2023-01-29T13:54:00.110Z, 72.2
2023-01-29T13:56:00.097Z, 73.4
2023-01-29T13:58:00.109Z, 73.6
2023-01-29T14:00:00.131Z, 74.4
2023-01-29T14:02:00.254Z, 73.9
2023-01-29T14:04:07.307Z, 72.7
2023-01-29T14:06:00.099Z, 72.4
2023-01-29T14:08:00.119Z, 72.2
2023-01-29T14:10:00.103Z, 72.1
2023-01-29T14:12:00.095Z, 72.8
2023-01-29T14:14:00.105Z, 72.7
2023-01-29T14:16:00.105Z, 71.3
2023-01-29T14:18:00.268Z, 71.6
2023-01-29T14:20:00.488Z, 72.2
2023-01-29T14:22:00.113Z, 72.4
2023-01-29T14:24:00.141Z, 71.9
2023-01-29T14:26:00.106Z, 72
2023-01-29T14:28:00.090Z, 72.4
2023-01-29T14:30:00.101Z, 72.4
2023-01-29T14:32:00.119Z, 71.9
2023-01-29T14:34:00.153Z, 72.2
2023-01-29T14:36:00.094Z, 72.5
2023-01-29T14:38:00.093Z, 73.1
2023-01-29T14:40:00.101Z, 72.2
2023-01-29T14:42:00.096Z, 71.9
2023-01-29T14:44:00.097Z, 71.3
2023-01-29T14:46:00.171Z, 71.4
2023-01-29T14:48:00.093Z, 72
2023-01-29T14:50:00.105Z, 72.8
2023-01-29T14:52:00.119Z, 72.3
2023-01-29T14:54:00.094Z, 72.3
2023-01-29T14:56:00.111Z, 72.7
2023-01-29T14:58:00.098Z, 72.6
2023-01-29T15:00:00.118Z, 72.2
2023-01-29T15:02:00.092Z, 72.2
2023-01-29T15:04:00.103Z, 72.3
2023-01-29T15:06:00.091Z, 72.6
2023-01-29T15:08:00.097Z, 73
2023-01-29T15:10:13.492Z, 73.1
2023-01-29T15:12:00.092Z, 72.5
2023-01-29T15:14:00.087Z, 72.6
2023-01-29T15:16:00.267Z, 73.1
2023-01-29T15:18:00.093Z, 73.4
2023-01-29T15:20:00.109Z, 72.4
2023-01-29T15:22:00.098Z, 72.6
2023-01-29T15:24:00.094Z, 73
2023-01-29T15:26:00.088Z, 73.2
2023-01-29T15:28:00.108Z, 72.9
2023-01-29T15:30:00.142Z, 72.8
2023-01-29T15:32:00.136Z, 73.1
2023-01-29T15:34:00.104Z, 73
2023-01-29T15:36:07.279Z, 72.8
2023-01-29T15:38:00.099Z, 72.6
2023-01-29T15:40:00.127Z, 72.6
2023-01-29T15:42:00.093Z, 73.5
2023-01-29T15:44:00.096Z, 74
2023-01-29T15:46:00.085Z, 74
2023-01-29T15:48:00.105Z, 73.2
2023-01-29T15:50:00.145Z, 73.5
2023-01-29T15:52:00.091Z, 73.8
2023-01-29T15:54:00.089Z, 73.9
2023-01-29T15:56:00.084Z, 74.1
2023-01-29T15:58:00.118Z, 73.9
2023-01-29T16:00:00.249Z, 74.1
2023-01-29T16:02:00.099Z, 73.9
2023-01-29T16:04:00.121Z, 73.8
2023-01-29T16:06:00.109Z, 73.9
2023-01-29T16:08:00.109Z, 74.2
2023-01-29T16:10:00.200Z, 74.5
2023-01-29T16:12:00.475Z, 74.9
2023-01-29T16:14:00.158Z, 75.2
2023-01-29T16:16:00.206Z, 75.6
2023-01-29T16:18:00.107Z, 76
2023-01-29T16:20:00.213Z, 75.9
2023-01-29T16:22:00.119Z, 75.9
2023-01-29T16:24:00.099Z, 75.8
2023-01-29T16:26:00.130Z, 75.9
2023-01-29T16:28:00.100Z, 76.3
2023-01-29T16:30:00.232Z, 76.5
2023-01-29T16:32:00.146Z, 76.3
2023-01-29T16:34:00.125Z, 76.5
2023-01-29T16:36:00.095Z, 76.4
2023-01-29T16:38:00.112Z, 76.2
2023-01-29T16:40:00.149Z, 76.1
2023-01-29T16:42:00.093Z, 76.3
2023-01-29T16:44:00.086Z, 76.3
2023-01-29T16:46:00.114Z, 76.7
2023-01-29T16:48:00.111Z, 77.1
2023-01-29T16:50:00.148Z, 77
2023-01-29T16:52:00.109Z, 77.5
2023-01-29T16:54:00.116Z, 78.3
2023-01-29T16:56:00.092Z, 79.1
2023-01-29T16:58:00.098Z, 79.4
2023-01-29T17:00:00.107Z, 79.7
2023-01-29T17:02:00.260Z, 80
2023-01-29T17:04:00.153Z, 80.3
2023-01-29T17:06:00.095Z, 80.7
2023-01-29T17:08:00.094Z, 81
2023-01-29T17:10:00.118Z, 81.6
2023-01-29T17:12:00.101Z, 81.8
2023-01-29T17:14:00.119Z, 82.4
2023-01-29T17:16:00.147Z, 82.5
2023-01-29T17:18:00.121Z, 83
2023-01-29T17:20:00.112Z, 83.4
2023-01-29T17:22:00.119Z, 83.6
2023-01-29T17:24:00.092Z, 83.8
2023-01-29T17:26:00.115Z, 84.1
2023-01-29T17:28:00.092Z, 84.4
2023-01-29T17:30:00.102Z, 84.3
2023-01-29T17:32:00.391Z, 83.6
2023-01-29T17:34:00.088Z, 82.8
2023-01-29T17:36:00.102Z, 82.9
2023-01-29T17:38:00.112Z, 83.1
2023-01-29T17:40:00.104Z, 83.5
2023-01-29T17:42:00.105Z, 84
2023-01-29T17:44:00.111Z, 84.2
2023-01-29T17:46:00.138Z, 84.1
2023-01-29T17:48:00.110Z, 83.9
2023-01-29T17:50:00.111Z, 83.8
2023-01-29T17:52:00.077Z, 83.6
2023-01-29T17:54:00.073Z, 83.9
2023-01-29T17:56:00.055Z, 84
2023-01-29T17:58:00.050Z, 84.1
2023-01-29T18:00:00.111Z, 84.4
2023-01-29T18:02:00.222Z, 84.8
2023-01-29T18:04:00.120Z, 84.7
2023-01-29T18:06:00.097Z, 84.2
2023-01-29T18:08:00.113Z, 84
2023-01-29T18:10:00.099Z, 83.7
2023-01-29T18:12:00.100Z, 84.1
2023-01-29T18:14:02.694Z, 84.2
2023-01-29T18:16:00.171Z, 84.2
2023-01-29T18:18:00.132Z, 84.2
2023-01-29T18:20:00.116Z, 84.2
2023-01-29T18:22:00.118Z, 84.6
2023-01-29T18:24:00.106Z, 84.7
2023-01-29T18:26:00.134Z, 84.5
2023-01-29T18:28:00.063Z, 84.7
2023-01-29T18:30:00.091Z, 84.8
2023-01-29T18:32:00.204Z, 85
2023-01-29T18:34:00.065Z, 85.1
2023-01-29T18:36:00.291Z, 84.9
2023-01-29T18:38:00.115Z, 84.3
2023-01-29T18:40:00.155Z, 83.9
2023-01-29T18:42:00.105Z, 83.5
2023-01-29T18:44:00.120Z, 83.3
2023-01-29T18:46:00.199Z, 83.2
2023-01-29T18:48:00.113Z, 83.1
2023-01-29T18:50:00.382Z, 83.5
2023-01-29T18:52:00.129Z, 83.5
2023-01-29T18:54:00.089Z, 84
2023-01-29T18:56:00.120Z, 84.4
2023-01-29T18:58:26.211Z, 84.2
2023-01-29T19:00:00.100Z, 83.8
2023-01-29T19:02:00.138Z, 83.7
2023-01-29T19:04:00.109Z, 83.5
2023-01-29T19:06:00.109Z, 83.8
2023-01-29T19:08:00.105Z, 83.8
2023-01-29T19:10:00.140Z, 84.4
2023-01-29T19:12:00.116Z, 84.6
2023-01-29T19:14:00.095Z, 84.5
2023-01-29T19:16:00.134Z, 84.6
2023-01-29T19:18:00.101Z, 84.6
2023-01-29T19:20:00.106Z, 84.9
2023-01-29T19:22:00.103Z, 84.4
2023-01-29T19:24:00.099Z, 84.5
2023-01-29T19:26:00.119Z, 84.1
2023-01-29T19:28:00.142Z, 83.9
2023-01-29T19:30:00.087Z, 83.7
2023-01-29T19:32:00.128Z, 83.4
2023-01-29T19:34:00.122Z, 83.4
2023-01-29T19:36:00.093Z, 83.7
2023-01-29T19:38:00.106Z, 83.7
2023-01-29T19:40:00.096Z, 83.9
2023-01-29T19:42:00.169Z, 83.5
2023-01-29T19:44:00.125Z, 83.2
2023-01-29T19:46:00.423Z, 83.5
2023-01-29T19:48:00.596Z, 83.2
2023-01-29T19:50:00.381Z, 83.4
2023-01-29T19:52:00.056Z, 83.2
2023-01-29T19:54:00.052Z, 83.3
2023-01-29T19:56:00.043Z, 83.4
2023-01-29T19:58:00.044Z, 83.8
2023-01-29T20:00:00.093Z, 84.1
2023-01-29T20:02:00.174Z, 84
2023-01-29T20:04:00.111Z, 83.8
2023-01-29T20:06:00.091Z, 83.7
2023-01-29T20:08:00.060Z, 83.7
2023-01-29T20:10:00.099Z, 83.2
2023-01-29T20:12:00.119Z, 83.3
2023-01-29T20:14:00.102Z, 83.5
2023-01-29T20:16:00.117Z, 83.9
2023-01-29T20:18:00.113Z, 83.8
2023-01-29T20:20:00.131Z, 83.8
2023-01-29T20:22:00.094Z, 83.5
2023-01-29T20:24:00.132Z, 83.4
2023-01-29T20:26:00.114Z, 83
2023-01-29T20:28:00.096Z, 82.8
2023-01-29T20:30:00.127Z, 82.6
2023-01-29T20:32:00.112Z, 82.7
2023-01-29T20:34:00.112Z, 82.4
2023-01-29T20:36:00.151Z, 82.4
2023-01-29T20:38:00.134Z, 82.7
2023-01-29T20:40:00.099Z, 82.7
2023-01-29T20:42:00.136Z, 82.5
2023-01-29T20:44:00.099Z, 82.4
2023-01-29T20:46:00.198Z, 82.3
2023-01-29T20:48:00.118Z, 82.1
2023-01-29T20:50:00.129Z, 81.9
2023-01-29T20:52:00.126Z, 82.3
2023-01-29T20:54:00.115Z, 82.5
2023-01-29T20:56:00.099Z, 82.7
2023-01-29T20:58:05.051Z, 82.7
2023-01-29T21:00:00.105Z, 82.9
2023-01-29T21:02:00.127Z, 83
2023-01-29T21:04:00.108Z, 83.3
2023-01-29T21:06:00.122Z, 83.2
2023-01-29T21:08:00.101Z, 83.1
2023-01-29T21:10:00.101Z, 83
2023-01-29T21:12:00.103Z, 82.7
2023-01-29T21:14:00.115Z, 83
2023-01-29T21:16:00.138Z, 83.2
2023-01-29T21:18:00.100Z, 83.4
2023-01-29T21:20:00.145Z, 83.4
2023-01-29T21:22:00.106Z, 83.4
2023-01-29T21:24:00.110Z, 83.4
2023-01-29T21:26:00.096Z, 83.5
2023-01-29T21:28:00.096Z, 83.9
2023-01-29T21:30:00.101Z, 84
2023-01-29T21:32:00.161Z, 84.3
2023-01-29T21:34:00.101Z, 84.5
2023-01-29T21:36:00.137Z, 84.8
2023-01-29T21:38:00.104Z, 85.2
2023-01-29T21:40:00.101Z, 85.7
2023-01-29T21:42:00.109Z, 86.3
2023-01-29T21:44:00.094Z, 86.5
2023-01-29T21:46:00.247Z, 86.7
2023-01-29T21:48:00.093Z, 87
2023-01-29T21:50:00.104Z, 87.1
2023-01-29T21:52:00.104Z, 87.4
2023-01-29T21:54:00.110Z, 87.7
2023-01-29T21:56:00.111Z, 87.9
2023-01-29T21:58:00.108Z, 88.2
2023-01-29T22:00:00.117Z, 88.5
2023-01-29T22:02:00.218Z, 88.5
2023-01-29T22:04:00.098Z, 88.6
2023-01-29T22:06:00.104Z, 88.7
2023-01-29T22:08:00.107Z, 88.5
2023-01-29T22:10:00.102Z, 88.5
2023-01-29T22:12:00.091Z, 88.5
2023-01-29T22:14:00.121Z, 88.3
2023-01-29T22:16:00.091Z, 88.1
2023-01-29T22:18:00.141Z, 88
2023-01-29T22:20:00.117Z, 88.1
2023-01-29T22:22:00.100Z, 88.1
2023-01-29T22:24:00.106Z, 88.2
2023-01-29T22:26:00.119Z, 88.4
2023-01-29T22:28:00.099Z, 88.5
2023-01-29T22:30:00.125Z, 88.5
2023-01-29T22:32:00.156Z, 88.4
2023-01-29T22:34:00.101Z, 88.4
2023-01-29T22:36:00.103Z, 88.4
2023-01-29T22:38:00.107Z, 88.6
2023-01-29T22:40:00.134Z, 88.8
2023-01-29T22:42:00.159Z, 88.7
2023-01-29T22:44:00.132Z, 88.9
2023-01-29T22:46:00.250Z, 88.6
2023-01-29T22:48:00.105Z, 88.7
2023-01-29T22:50:00.106Z, 88.9
2023-01-29T22:52:00.094Z, 88.8
2023-01-29T22:54:00.099Z, 88.7
2023-01-29T22:56:00.103Z, 88.8
2023-01-29T22:58:00.129Z, 89.1
2023-01-29T23:00:00.120Z, 89.2
2023-01-29T23:02:00.213Z, 89.2
2023-01-29T23:04:00.095Z, 89
2023-01-29T23:06:00.094Z, 88.8
2023-01-29T23:08:00.078Z, 88.8
2023-01-29T23:10:00.094Z, 88.9
2023-01-29T23:12:00.106Z, 88.8
2023-01-29T23:14:00.096Z, 88.8
2023-01-29T23:16:00.155Z, 88.8
2023-01-29T23:18:00.105Z, 88.8
2023-01-29T23:20:00.100Z, 88.9
2023-01-29T23:22:00.115Z, 89.1
2023-01-29T23:24:00.092Z, 89.1
2023-01-29T23:26:00.101Z, 89.1
2023-01-29T23:28:00.092Z, 89.1
2023-01-29T23:30:00.151Z, 89.1
2023-01-29T23:32:00.103Z, 89
2023-01-29T23:34:00.113Z, 88.9
2023-01-29T23:36:00.113Z, 88.9
2023-01-29T23:38:00.125Z, 88.7
2023-01-29T23:40:00.106Z, 88.5
2023-01-29T23:42:00.123Z, 88.4
2023-01-29T23:44:00.092Z, 88.3
2023-01-29T23:46:00.086Z, 88.1
2023-01-29T23:48:00.100Z, 88
2023-01-29T23:50:00.109Z, 88
2023-01-29T23:52:00.073Z, 88.2
2023-01-29T23:54:00.073Z, 88.2
2023-01-29T23:56:00.127Z, 88.2
2023-01-29T23:58:00.115Z, 88.4
